Chasetown, United Kingdom
Current Conditions -  °F | °C
As of 2:50 AM on Friday 28 Nov 2014 (Local Time) from EGBB Reporting Station
Haze Haze  
Wind Chill: 44°   Ceiling: 600
Heat Index: 48°   Visibility: 2.4mi
Dew Point: 46°   Wind: 9mph
Humidity: 93%   Direction: 90°E
Pressure: 29.59"   Gusts: NA
Location:  52.67°N, 1.93°W
Report Text: EGBB 280250Z AUTO 09008KT 3900 BR BKN006/// OVC014/// 09/08 Q1002
Loading
Personal Weather Stations






























Interactive Weather Map New forecast layout! Learn more

10-Day Weather Forecast

Advertisements
Track Severe Weather on mobile